sensor_id;sensor_type;location;lat;lon;timestamp;P1;durP1;ratioP1;P2;durP2;ratioP2
20014;SDS011;61787;42.022;23.078;2022-10-24T00:00:16;8.80;;;5.33;;
20014;SDS011;61787;42.022;23.078;2022-10-24T00:01:19;13.17;;;5.50;;
20014;SDS011;61787;42.022;23.078;2022-10-24T00:02:22;8.53;;;4.87;;
20014;SDS011;61787;42.022;23.078;2022-10-24T00:03:24;9.60;;;4.93;;
20014;SDS011;61787;42.022;23.078;2022-10-24T00:04:26;9.37;;;5.00;;
20014;SDS011;61787;42.022;23.078;2022-10-24T00:05:28;7.50;;;4.43;;
20014;SDS011;61787;42.022;23.078;2022-10-24T00:06:32;7.50;;;4.77;;
20014;SDS011;61787;42.022;23.078;2022-10-24T00:07:33;10.33;;;5.07;;
20014;SDS011;61787;42.022;23.078;2022-10-24T00:08:35;12.87;;;4.70;;
20014;SDS011;61787;42.022;23.078;2022-10-24T00:09:37;11.03;;;4.77;;
20014;SDS011;61787;42.022;23.078;2022-10-24T00:10:40;12.07;;;4.97;;
20014;SDS011;61787;42.022;23.078;2022-10-24T00:11:44;8.47;;;5.50;;
20014;SDS011;61787;42.022;23.078;2022-10-24T00:12:45;11.97;;;5.03;;
20014;SDS011;61787;42.022;23.078;2022-10-24T00:13:47;9.80;;;5.53;;
20014;SDS011;61787;42.022;23.078;2022-10-24T00:14:50;11.13;;;5.07;;
20014;SDS011;61787;42.022;23.078;2022-10-24T00:15:52;9.43;;;5.10;;
20014;SDS011;61787;42.022;23.078;2022-10-24T00:16:53;11.23;;;5.43;;
20014;SDS011;61787;42.022;23.078;2022-10-24T00:17:55;9.13;;;5.80;;
20014;SDS011;61787;42.022;23.078;2022-10-24T00:18:57;8.97;;;5.27;;
20014;SDS011;61787;42.022;23.078;2022-10-24T00:19:58;12.27;;;5.87;;
20014;SDS011;61787;42.022;23.078;2022-10-24T00:21:03;8.80;;;5.13;;
20014;SDS011;61787;42.022;23.078;2022-10-24T00:22:07;9.77;;;5.40;;
20014;SDS011;61787;42.022;23.078;2022-10-24T00:23:09;7.13;;;5.30;;
20014;SDS011;61787;42.022;23.078;2022-10-24T00:24:13;11.43;;;5.23;;
20014;SDS011;61787;42.022;23.078;2022-10-24T00:25:15;10.13;;;5.27;;
20014;SDS011;61787;42.022;23.078;2022-10-24T00:26:17;8.53;;;5.43;;
20014;SDS011;61787;42.022;23.078;2022-10-24T00:27:19;9.07;;;5.93;;
20014;SDS011;61787;42.022;23.078;2022-10-24T00:28:20;11.27;;;5.83;;
20014;SDS011;61787;42.022;23.078;2022-10-24T00:29:22;8.07;;;5.30;;
20014;SDS011;61787;42.022;23.078;2022-10-24T00:30:24;10.00;;;5.60;;
20014;SDS011;61787;42.022;23.078;2022-10-24T00:31:26;8.57;;;5.97;;
20014;SDS011;61787;42.022;23.078;2022-10-24T00:32:28;8.60;;;5.80;;
20014;SDS011;61787;42.022;23.078;2022-10-24T00:33:30;14.43;;;6.10;;
20014;SDS011;61787;42.022;23.078;2022-10-24T00:34:31;10.70;;;5.67;;
20014;SDS011;61787;42.022;23.078;2022-10-24T00:35:33;9.27;;;5.43;;
20014;SDS011;61787;42.022;23.078;2022-10-24T00:36:35;9.70;;;5.37;;
20014;SDS011;61787;42.022;23.078;2022-10-24T00:37:36;9.13;;;5.67;;
20014;SDS011;61787;42.022;23.078;2022-10-24T00:38:38;7.73;;;4.87;;
20014;SDS011;61787;42.022;23.078;2022-10-24T00:39:40;12.07;;;5.60;;
20014;SDS011;61787;42.022;23.078;2022-10-24T00:40:41;11.40;;;5.63;;
20014;SDS011;61787;42.022;23.078;2022-10-24T00:41:43;11.20;;;5.67;;
20014;SDS011;61787;42.022;23.078;2022-10-24T00:42:46;15.10;;;5.47;;
20014;SDS011;61787;42.022;23.078;2022-10-24T00:43:48;8.30;;;5.43;;
20014;SDS011;61787;42.022;23.078;2022-10-24T00:44:51;9.73;;;5.20;;
20014;SDS011;61787;42.022;23.078;2022-10-24T00:47:00;10.33;;;5.07;;
20014;SDS011;61787;42.022;23.078;2022-10-24T00:48:49;8.57;;;5.27;;
20014;SDS011;61787;42.022;23.078;2022-10-24T00:52:29;5.97;;;4.80;;
20014;SDS011;61787;42.022;23.078;2022-10-24T00:53:34;10.30;;;5.17;;
20014;SDS011;61787;42.022;23.078;2022-10-24T00:54:41;7.17;;;5.03;;
20014;SDS011;61787;42.022;23.078;2022-10-24T00:55:43;10.97;;;5.30;;
20014;SDS011;61787;42.022;23.078;2022-10-24T00:56:52;10.10;;;4.80;;
20014;SDS011;61787;42.022;23.078;2022-10-24T00:58:00;11.27;;;6.20;;
20014;SDS011;61787;42.022;23.078;2022-10-24T00:59:03;13.43;;;5.90;;
20014;SDS011;61787;42.022;23.078;2022-10-24T01:00:08;9.63;;;5.60;;
20014;SDS011;61787;42.022;23.078;2022-10-24T01:01:21;13.73;;;5.40;;
20014;SDS011;61787;42.022;23.078;2022-10-24T01:02:25;16.83;;;6.10;;
20014;SDS011;61787;42.022;23.078;2022-10-24T01:03:27;11.13;;;6.13;;
20014;SDS011;61787;42.022;23.078;2022-10-24T01:04:31;17.90;;;6.27;;
20014;SDS011;61787;42.022;23.078;2022-10-24T01:05:39;17.17;;;6.60;;
20014;SDS011;61787;42.022;23.078;2022-10-24T01:12:33;11.87;;;6.10;;
20014;SDS011;61787;42.022;23.078;2022-10-24T01:13:42;14.83;;;6.40;;
20014;SDS011;61787;42.022;23.078;2022-10-24T01:16:26;11.67;;;5.50;;
20014;SDS011;61787;42.022;23.078;2022-10-24T01:18:50;18.13;;;5.53;;
20014;SDS011;61787;42.022;23.078;2022-10-24T01:20:14;15.10;;;5.87;;
20014;SDS011;61787;42.022;23.078;2022-10-24T01:26:57;14.97;;;5.10;;
20014;SDS011;61787;42.022;23.078;2022-10-24T01:28:10;9.73;;;5.07;;
20014;SDS011;61787;42.022;23.078;2022-10-24T01:29:29;9.77;;;5.77;;
20014;SDS011;61787;42.022;23.078;2022-10-24T01:30:34;12.50;;;5.07;;
20014;SDS011;61787;42.022;23.078;2022-10-24T01:31:48;13.27;;;5.33;;
20014;SDS011;61787;42.022;23.078;2022-10-24T01:33:02;12.03;;;5.33;;
20014;SDS011;61787;42.022;23.078;2022-10-24T01:35:36;10.00;;;4.87;;
20014;SDS011;61787;42.022;23.078;2022-10-24T01:36:56;10.10;;;4.33;;
20014;SDS011;61787;42.022;23.078;2022-10-24T01:38:11;8.67;;;5.07;;
20014;SDS011;61787;42.022;23.078;2022-10-24T01:39:15;14.77;;;5.73;;
20014;SDS011;61787;42.022;23.078;2022-10-24T01:40:22;8.67;;;4.77;;
20014;SDS011;61787;42.022;23.078;2022-10-24T01:41:55;10.80;;;5.40;;
20014;SDS011;61787;42.022;23.078;2022-10-24T01:43:00;11.57;;;4.93;;
20014;SDS011;61787;42.022;23.078;2022-10-24T01:44:20;11.87;;;5.07;;
20014;SDS011;61787;42.022;23.078;2022-10-24T01:45:29;7.87;;;4.50;;
20014;SDS011;61787;42.022;23.078;2022-10-24T01:46:36;10.10;;;4.30;;
20014;SDS011;61787;42.022;23.078;2022-10-24T01:47:49;10.73;;;4.53;;
20014;SDS011;61787;42.022;23.078;2022-10-24T01:48:58;7.37;;;4.63;;
20014;SDS011;61787;42.022;23.078;2022-10-24T01:50:06;15.10;;;4.70;;
20014;SDS011;61787;42.022;23.078;2022-10-24T01:51:12;9.40;;;4.60;;
20014;SDS011;61787;42.022;23.078;2022-10-24T01:52:17;12.43;;;5.60;;
20014;SDS011;61787;42.022;23.078;2022-10-24T01:53:20;10.83;;;4.77;;
20014;SDS011;61787;42.022;23.078;2022-10-24T01:54:25;12.93;;;5.17;;
20014;SDS011;61787;42.022;23.078;2022-10-24T01:55:29;11.90;;;5.10;;
20014;SDS011;61787;42.022;23.078;2022-10-24T01:56:32;8.83;;;4.57;;
20014;SDS011;61787;42.022;23.078;2022-10-24T01:57:34;9.37;;;5.10;;
20014;SDS011;61787;42.022;23.078;2022-10-24T01:58:36;11.80;;;5.23;;
20014;SDS011;61787;42.022;23.078;2022-10-24T01:59:39;13.40;;;5.40;;
20014;SDS011;61787;42.022;23.078;2022-10-24T02:00:43;11.07;;;5.40;;
20014;SDS011;61787;42.022;23.078;2022-10-24T02:01:47;8.57;;;5.17;;
20014;SDS011;61787;42.022;23.078;2022-10-24T02:02:59;11.10;;;4.90;;
20014;SDS011;61787;42.022;23.078;2022-10-24T02:04:05;10.70;;;4.87;;
20014;SDS011;61787;42.022;23.078;2022-10-24T02:05:13;8.77;;;4.97;;
20014;SDS011;61787;42.022;23.078;2022-10-24T02:06:18;8.77;;;5.03;;
20014;SDS011;61787;42.022;23.078;2022-10-24T02:07:35;10.53;;;4.80;;
20014;SDS011;61787;42.022;23.078;2022-10-24T02:08:42;20.40;;;6.27;;
20014;SDS011;61787;42.022;23.078;2022-10-24T02:09:53;17.93;;;5.60;;
20014;SDS011;61787;42.022;23.078;2022-10-24T02:11:01;16.77;;;5.37;;
20014;SDS011;61787;42.022;23.078;2022-10-24T02:12:07;9.97;;;5.47;;
20014;SDS011;61787;42.022;23.078;2022-10-24T02:13:12;13.97;;;5.00;;
20014;SDS011;61787;42.022;23.078;2022-10-24T02:14:20;10.87;;;4.80;;
20014;SDS011;61787;42.022;23.078;2022-10-24T02:15:29;12.53;;;4.80;;
20014;SDS011;61787;42.022;23.078;2022-10-24T02:16:34;13.13;;;5.10;;
20014;SDS011;61787;42.022;23.078;2022-10-24T02:17:35;9.10;;;5.03;;
20014;SDS011;61787;42.022;23.078;2022-10-24T02:18:39;9.77;;;5.73;;
20014;SDS011;61787;42.022;23.078;2022-10-24T02:19:41;11.93;;;4.73;;
20014;SDS011;61787;42.022;23.078;2022-10-24T02:20:47;13.20;;;4.80;;
20014;SDS011;61787;42.022;23.078;2022-10-24T02:23:04;10.17;;;4.73;;
20014;SDS011;61787;42.022;23.078;2022-10-24T02:24:14;7.83;;;4.63;;
20014;SDS011;61787;42.022;23.078;2022-10-24T02:25:26;11.30;;;4.83;;
20014;SDS011;61787;42.022;23.078;2022-10-24T02:26:36;13.10;;;4.70;;
20014;SDS011;61787;42.022;23.078;2022-10-24T02:27:49;12.77;;;4.60;;
20014;SDS011;61787;42.022;23.078;2022-10-24T02:28:57;10.67;;;5.23;;
20014;SDS011;61787;42.022;23.078;2022-10-24T02:30:06;9.77;;;4.60;;
20014;SDS011;61787;42.022;23.078;2022-10-24T02:31:15;10.57;;;5.40;;
20014;SDS011;61787;42.022;23.078;2022-10-24T02:32:24;8.17;;;5.20;;
20014;SDS011;61787;42.022;23.078;2022-10-24T02:33:29;10.23;;;4.40;;
20014;SDS011;61787;42.022;23.078;2022-10-24T02:34:34;9.53;;;4.77;;
20014;SDS011;61787;42.022;23.078;2022-10-24T02:35:38;7.67;;;4.13;;
20014;SDS011;61787;42.022;23.078;2022-10-24T02:36:41;9.33;;;4.73;;
20014;SDS011;61787;42.022;23.078;2022-10-24T02:37:46;9.90;;;5.20;;
20014;SDS011;61787;42.022;23.078;2022-10-24T02:38:51;8.00;;;4.33;;
20014;SDS011;61787;42.022;23.078;2022-10-24T02:39:55;9.40;;;4.30;;
20014;SDS011;61787;42.022;23.078;2022-10-24T02:41:00;9.70;;;4.67;;
20014;SDS011;61787;42.022;23.078;2022-10-24T02:42:05;10.47;;;4.83;;
20014;SDS011;61787;42.022;23.078;2022-10-24T02:43:08;13.87;;;4.70;;
20014;SDS011;61787;42.022;23.078;2022-10-24T02:44:12;9.80;;;4.90;;
20014;SDS011;61787;42.022;23.078;2022-10-24T02:45:18;11.90;;;5.07;;
20014;SDS011;61787;42.022;23.078;2022-10-24T02:46:21;12.27;;;5.53;;
20014;SDS011;61787;42.022;23.078;2022-10-24T02:47:25;10.33;;;4.63;;
20014;SDS011;61787;42.022;23.078;2022-10-24T02:48:29;7.07;;;4.73;;
20014;SDS011;61787;42.022;23.078;2022-10-24T02:49:34;11.63;;;5.30;;
20014;SDS011;61787;42.022;23.078;2022-10-24T02:50:37;12.50;;;5.20;;
20014;SDS011;61787;42.022;23.078;2022-10-24T02:51:42;15.63;;;5.23;;
20014;SDS011;61787;42.022;23.078;2022-10-24T02:52:46;12.13;;;4.80;;
20014;SDS011;61787;42.022;23.078;2022-10-24T02:53:48;6.43;;;4.20;;
20014;SDS011;61787;42.022;23.078;2022-10-24T02:54:50;7.80;;;4.40;;
20014;SDS011;61787;42.022;23.078;2022-10-24T02:55:53;8.13;;;4.83;;
20014;SDS011;61787;42.022;23.078;2022-10-24T02:56:57;7.67;;;4.80;;
20014;SDS011;61787;42.022;23.078;2022-10-24T02:58:01;11.67;;;4.77;;
20014;SDS011;61787;42.022;23.078;2022-10-24T02:59:03;8.33;;;4.50;;
20014;SDS011;61787;42.022;23.078;2022-10-24T03:00:05;7.77;;;5.20;;
20014;SDS011;61787;42.022;23.078;2022-10-24T03:01:08;9.87;;;5.20;;
20014;SDS011;61787;42.022;23.078;2022-10-24T03:02:10;9.30;;;4.70;;
20014;SDS011;61787;42.022;23.078;2022-10-24T03:03:12;11.23;;;5.13;;
20014;SDS011;61787;42.022;23.078;2022-10-24T03:04:13;7.97;;;4.40;;
20014;SDS011;61787;42.022;23.078;2022-10-24T03:05:15;8.23;;;4.50;;
20014;SDS011;61787;42.022;23.078;2022-10-24T03:06:17;8.10;;;4.57;;
20014;SDS011;61787;42.022;23.078;2022-10-24T03:07:19;7.80;;;4.57;;
20014;SDS011;61787;42.022;23.078;2022-10-24T03:08:20;7.77;;;4.70;;
20014;SDS011;61787;42.022;23.078;2022-10-24T03:09:22;8.17;;;4.50;;
20014;SDS011;61787;42.022;23.078;2022-10-24T03:10:24;10.90;;;5.23;;
20014;SDS011;61787;42.022;23.078;2022-10-24T03:11:25;7.97;;;4.90;;
20014;SDS011;61787;42.022;23.078;2022-10-24T03:12:27;6.13;;;4.87;;
20014;SDS011;61787;42.022;23.078;2022-10-24T03:13:29;10.00;;;4.87;;
20014;SDS011;61787;42.022;23.078;2022-10-24T03:14:31;14.30;;;5.33;;
20014;SDS011;61787;42.022;23.078;2022-10-24T03:15:33;9.87;;;5.17;;
20014;SDS011;61787;42.022;23.078;2022-10-24T03:16:34;6.90;;;4.93;;
20014;SDS011;61787;42.022;23.078;2022-10-24T03:17:36;9.90;;;5.50;;
20014;SDS011;61787;42.022;23.078;2022-10-24T03:18:38;6.57;;;4.90;;
20014;SDS011;61787;42.022;23.078;2022-10-24T03:19:39;10.20;;;5.40;;
20014;SDS011;61787;42.022;23.078;2022-10-24T03:20:41;13.60;;;4.90;;
20014;SDS011;61787;42.022;23.078;2022-10-24T03:21:43;9.77;;;5.27;;
20014;SDS011;61787;42.022;23.078;2022-10-24T03:22:44;8.57;;;4.60;;
20014;SDS011;61787;42.022;23.078;2022-10-24T03:23:46;9.17;;;5.07;;
20014;SDS011;61787;42.022;23.078;2022-10-24T03:24:48;8.33;;;5.73;;
20014;SDS011;61787;42.022;23.078;2022-10-24T03:25:57;7.70;;;5.30;;
20014;SDS011;61787;42.022;23.078;2022-10-24T03:26:59;9.07;;;5.83;;
20014;SDS011;61787;42.022;23.078;2022-10-24T03:28:01;8.60;;;5.07;;
20014;SDS011;61787;42.022;23.078;2022-10-24T03:29:02;9.87;;;5.20;;
20014;SDS011;61787;42.022;23.078;2022-10-24T03:30:05;7.90;;;5.43;;
20014;SDS011;61787;42.022;23.078;2022-10-24T03:31:07;10.60;;;5.80;;
20014;SDS011;61787;42.022;23.078;2022-10-24T03:32:09;12.53;;;5.53;;
20014;SDS011;61787;42.022;23.078;2022-10-24T03:33:13;10.73;;;5.20;;
20014;SDS011;61787;42.022;23.078;2022-10-24T03:34:19;12.17;;;5.53;;
20014;SDS011;61787;42.022;23.078;2022-10-24T03:35:21;11.13;;;5.27;;
20014;SDS011;61787;42.022;23.078;2022-10-24T03:36:22;15.27;;;5.73;;
20014;SDS011;61787;42.022;23.078;2022-10-24T03:37:24;20.03;;;5.80;;
20014;SDS011;61787;42.022;23.078;2022-10-24T03:38:26;17.00;;;5.90;;
20014;SDS011;61787;42.022;23.078;2022-10-24T03:39:28;17.60;;;6.37;;
20014;SDS011;61787;42.022;23.078;2022-10-24T03:40:35;20.27;;;6.23;;
20014;SDS011;61787;42.022;23.078;2022-10-24T03:41:37;22.70;;;6.63;;
20014;SDS011;61787;42.022;23.078;2022-10-24T03:42:39;24.20;;;6.40;;
20014;SDS011;61787;42.022;23.078;2022-10-24T03:43:40;22.83;;;7.47;;
20014;SDS011;61787;42.022;23.078;2022-10-24T03:44:42;16.23;;;6.70;;
20014;SDS011;61787;42.022;23.078;2022-10-24T03:45:44;14.07;;;6.17;;
20014;SDS011;61787;42.022;23.078;2022-10-24T03:46:46;17.90;;;6.53;;
20014;SDS011;61787;42.022;23.078;2022-10-24T03:47:47;16.47;;;5.67;;
20014;SDS011;61787;42.022;23.078;2022-10-24T03:48:49;14.27;;;6.37;;
20014;SDS011;61787;42.022;23.078;2022-10-24T03:49:51;14.93;;;6.37;;
20014;SDS011;61787;42.022;23.078;2022-10-24T03:50:52;12.80;;;5.53;;
20014;SDS011;61787;42.022;23.078;2022-10-24T03:51:56;15.13;;;6.43;;
20014;SDS011;61787;42.022;23.078;2022-10-24T03:52:58;14.20;;;6.37;;
20014;SDS011;61787;42.022;23.078;2022-10-24T03:54:00;15.10;;;5.97;;
20014;SDS011;61787;42.022;23.078;2022-10-24T03:55:01;9.53;;;5.87;;
20014;SDS011;61787;42.022;23.078;2022-10-24T03:56:03;14.23;;;6.77;;
20014;SDS011;61787;42.022;23.078;2022-10-24T03:57:05;17.60;;;6.40;;
20014;SDS011;61787;42.022;23.078;2022-10-24T03:58:10;13.53;;;5.93;;
20014;SDS011;61787;42.022;23.078;2022-10-24T03:59:11;25.40;;;6.57;;
20014;SDS011;61787;42.022;23.078;2022-10-24T04:00:13;20.77;;;6.40;;
20014;SDS011;61787;42.022;23.078;2022-10-24T04:01:15;14.33;;;6.40;;
20014;SDS011;61787;42.022;23.078;2022-10-24T04:02:18;16.00;;;6.37;;
20014;SDS011;61787;42.022;23.078;2022-10-24T04:03:20;13.97;;;6.50;;
20014;SDS011;61787;42.022;23.078;2022-10-24T04:04:22;16.17;;;6.53;;
20014;SDS011;61787;42.022;23.078;2022-10-24T04:05:23;12.67;;;5.90;;
20014;SDS011;61787;42.022;23.078;2022-10-24T04:06:25;13.77;;;5.87;;
20014;SDS011;61787;42.022;23.078;2022-10-24T04:07:28;15.27;;;5.50;;
20014;SDS011;61787;42.022;23.078;2022-10-24T04:08:31;12.47;;;5.80;;
20014;SDS011;61787;42.022;23.078;2022-10-24T04:09:33;12.97;;;5.07;;
20014;SDS011;61787;42.022;23.078;2022-10-24T04:10:34;16.67;;;5.93;;
20014;SDS011;61787;42.022;23.078;2022-10-24T04:11:39;18.60;;;6.53;;
20014;SDS011;61787;42.022;23.078;2022-10-24T04:12:40;14.43;;;6.43;;
20014;SDS011;61787;42.022;23.078;2022-10-24T04:13:42;17.63;;;7.23;;
20014;SDS011;61787;42.022;23.078;2022-10-24T04:14:44;13.90;;;6.50;;
20014;SDS011;61787;42.022;23.078;2022-10-24T04:15:48;10.93;;;6.57;;
20014;SDS011;61787;42.022;23.078;2022-10-24T04:16:50;15.57;;;6.30;;
20014;SDS011;61787;42.022;23.078;2022-10-24T04:17:51;12.60;;;6.50;;
20014;SDS011;61787;42.022;23.078;2022-10-24T04:18:53;11.97;;;6.10;;
20014;SDS011;61787;42.022;23.078;2022-10-24T04:19:55;10.80;;;5.80;;
20014;SDS011;61787;42.022;23.078;2022-10-24T04:20:56;19.60;;;6.60;;
20014;SDS011;61787;42.022;23.078;2022-10-24T04:21:58;13.80;;;5.97;;
20014;SDS011;61787;42.022;23.078;2022-10-24T04:23:00;9.00;;;5.33;;
20014;SDS011;61787;42.022;23.078;2022-10-24T04:24:04;13.27;;;6.10;;
20014;SDS011;61787;42.022;23.078;2022-10-24T04:25:06;10.33;;;5.70;;
20014;SDS011;61787;42.022;23.078;2022-10-24T04:26:10;13.23;;;5.90;;
20014;SDS011;61787;42.022;23.078;2022-10-24T04:27:13;13.83;;;5.80;;
20014;SDS011;61787;42.022;23.078;2022-10-24T04:28:14;17.40;;;5.87;;
20014;SDS011;61787;42.022;23.078;2022-10-24T04:29:16;14.43;;;5.73;;
20014;SDS011;61787;42.022;23.078;2022-10-24T04:30:18;10.77;;;5.97;;
20014;SDS011;61787;42.022;23.078;2022-10-24T04:31:19;16.50;;;6.67;;
20014;SDS011;61787;42.022;23.078;2022-10-24T04:32:24;16.83;;;5.87;;
20014;SDS011;61787;42.022;23.078;2022-10-24T04:33:25;13.10;;;6.20;;
20014;SDS011;61787;42.022;23.078;2022-10-24T04:34:27;12.77;;;6.03;;
20014;SDS011;61787;42.022;23.078;2022-10-24T04:35:28;12.23;;;5.53;;
20014;SDS011;61787;42.022;23.078;2022-10-24T04:36:31;14.57;;;5.33;;
20014;SDS011;61787;42.022;23.078;2022-10-24T04:37:43;11.37;;;6.00;;
20014;SDS011;61787;42.022;23.078;2022-10-24T04:38:44;14.30;;;6.30;;
20014;SDS011;61787;42.022;23.078;2022-10-24T04:39:46;18.37;;;6.23;;
20014;SDS011;61787;42.022;23.078;2022-10-24T04:40:49;16.63;;;6.17;;
20014;SDS011;61787;42.022;23.078;2022-10-24T04:41:54;15.07;;;5.83;;
20014;SDS011;61787;42.022;23.078;2022-10-24T04:42:56;15.70;;;6.27;;
20014;SDS011;61787;42.022;23.078;2022-10-24T04:43:57;16.63;;;6.40;;
20014;SDS011;61787;42.022;23.078;2022-10-24T04:44:59;13.50;;;6.03;;
20014;SDS011;61787;42.022;23.078;2022-10-24T04:46:01;14.77;;;5.73;;
20014;SDS011;61787;42.022;23.078;2022-10-24T04:47:02;15.70;;;5.93;;
20014;SDS011;61787;42.022;23.078;2022-10-24T04:48:04;11.53;;;5.70;;
20014;SDS011;61787;42.022;23.078;2022-10-24T04:49:06;10.47;;;5.40;;
20014;SDS011;61787;42.022;23.078;2022-10-24T04:50:08;16.00;;;5.77;;
20014;SDS011;61787;42.022;23.078;2022-10-24T04:51:10;10.47;;;6.23;;
20014;SDS011;61787;42.022;23.078;2022-10-24T04:52:12;17.10;;;5.87;;
20014;SDS011;61787;42.022;23.078;2022-10-24T04:53:14;11.47;;;6.07;;
20014;SDS011;61787;42.022;23.078;2022-10-24T04:54:17;15.47;;;5.67;;
20014;SDS011;61787;42.022;23.078;2022-10-24T04:55:19;11.90;;;6.20;;
20014;SDS011;61787;42.022;23.078;2022-10-24T04:56:20;15.03;;;5.60;;
20014;SDS011;61787;42.022;23.078;2022-10-24T04:57:23;11.67;;;5.87;;
20014;SDS011;61787;42.022;23.078;2022-10-24T04:58:27;15.40;;;5.80;;
20014;SDS011;61787;42.022;23.078;2022-10-24T04:59:28;12.20;;;5.70;;
20014;SDS011;61787;42.022;23.078;2022-10-24T05:00:30;12.37;;;5.57;;
20014;SDS011;61787;42.022;23.078;2022-10-24T05:01:32;23.47;;;6.50;;
20014;SDS011;61787;42.022;23.078;2022-10-24T05:02:33;9.27;;;5.47;;
20014;SDS011;61787;42.022;23.078;2022-10-24T05:03:35;12.37;;;5.90;;
20014;SDS011;61787;42.022;23.078;2022-10-24T05:04:37;12.47;;;5.50;;
20014;SDS011;61787;42.022;23.078;2022-10-24T05:05:39;8.80;;;5.70;;
20014;SDS011;61787;42.022;23.078;2022-10-24T05:06:41;8.03;;;5.43;;
20014;SDS011;61787;42.022;23.078;2022-10-24T05:07:45;10.13;;;5.77;;
20014;SDS011;61787;42.022;23.078;2022-10-24T05:08:47;13.33;;;6.50;;
20014;SDS011;61787;42.022;23.078;2022-10-24T05:09:49;9.97;;;5.67;;
20014;SDS011;61787;42.022;23.078;2022-10-24T05:10:51;8.40;;;5.57;;
20014;SDS011;61787;42.022;23.078;2022-10-24T05:11:53;7.60;;;5.60;;
20014;SDS011;61787;42.022;23.078;2022-10-24T05:12:56;7.87;;;4.90;;
20014;SDS011;61787;42.022;23.078;2022-10-24T05:13:57;6.93;;;5.27;;
20014;SDS011;61787;42.022;23.078;2022-10-24T05:15:00;8.40;;;5.57;;
20014;SDS011;61787;42.022;23.078;2022-10-24T05:16:01;9.97;;;5.20;;
20014;SDS011;61787;42.022;23.078;2022-10-24T05:17:03;7.17;;;5.30;;
20014;SDS011;61787;42.022;23.078;2022-10-24T05:18:05;7.17;;;5.47;;
20014;SDS011;61787;42.022;23.078;2022-10-24T05:19:06;8.23;;;4.97;;
20014;SDS011;61787;42.022;23.078;2022-10-24T05:20:08;7.70;;;5.63;;
20014;SDS011;61787;42.022;23.078;2022-10-24T05:21:10;11.57;;;5.83;;
20014;SDS011;61787;42.022;23.078;2022-10-24T05:22:12;9.00;;;5.33;;
20014;SDS011;61787;42.022;23.078;2022-10-24T05:23:14;9.50;;;6.00;;
20014;SDS011;61787;42.022;23.078;2022-10-24T05:24:16;11.77;;;5.80;;
20014;SDS011;61787;42.022;23.078;2022-10-24T05:25:17;9.43;;;5.77;;
20014;SDS011;61787;42.022;23.078;2022-10-24T05:26:19;16.27;;;7.93;;
20014;SDS011;61787;42.022;23.078;2022-10-24T05:27:21;24.43;;;8.93;;
20014;SDS011;61787;42.022;23.078;2022-10-24T05:28:24;16.33;;;8.00;;
20014;SDS011;61787;42.022;23.078;2022-10-24T05:29:26;12.07;;;6.37;;
20014;SDS011;61787;42.022;23.078;2022-10-24T05:30:28;10.13;;;6.27;;
20014;SDS011;61787;42.022;23.078;2022-10-24T05:31:29;17.80;;;8.33;;
20014;SDS011;61787;42.022;23.078;2022-10-24T05:32:31;16.50;;;8.47;;
20014;SDS011;61787;42.022;23.078;2022-10-24T05:33:36;17.93;;;8.80;;
20014;SDS011;61787;42.022;23.078;2022-10-24T05:34:37;22.27;;;9.27;;
20014;SDS011;61787;42.022;23.078;2022-10-24T05:35:39;22.33;;;9.17;;
20014;SDS011;61787;42.022;23.078;2022-10-24T05:36:42;18.87;;;8.80;;
20014;SDS011;61787;42.022;23.078;2022-10-24T05:37:43;22.20;;;10.07;;
20014;SDS011;61787;42.022;23.078;2022-10-24T05:38:45;20.53;;;9.67;;
20014;SDS011;61787;42.022;23.078;2022-10-24T05:39:47;18.50;;;10.73;;
20014;SDS011;61787;42.022;23.078;2022-10-24T05:40:48;25.97;;;10.63;;
20014;SDS011;61787;42.022;23.078;2022-10-24T05:41:51;30.57;;;11.33;;
20014;SDS011;61787;42.022;23.078;2022-10-24T05:42:55;30.77;;;11.80;;
20014;SDS011;61787;42.022;23.078;2022-10-24T05:43:57;32.97;;;10.67;;
20014;SDS011;61787;42.022;23.078;2022-10-24T05:44:59;22.53;;;10.77;;
20014;SDS011;61787;42.022;23.078;2022-10-24T05:46:00;21.93;;;10.57;;
20014;SDS011;61787;42.022;23.078;2022-10-24T05:47:02;27.07;;;11.00;;
20014;SDS011;61787;42.022;23.078;2022-10-24T05:48:04;28.80;;;11.03;;
20014;SDS011;61787;42.022;23.078;2022-10-24T05:49:06;32.87;;;12.17;;
20014;SDS011;61787;42.022;23.078;2022-10-24T05:50:08;27.87;;;10.57;;
20014;SDS011;61787;42.022;23.078;2022-10-24T05:51:10;24.97;;;10.93;;
20014;SDS011;61787;42.022;23.078;2022-10-24T05:52:12;24.93;;;9.77;;
20014;SDS011;61787;42.022;23.078;2022-10-24T05:53:13;21.93;;;9.47;;
20014;SDS011;61787;42.022;23.078;2022-10-24T05:54:15;19.10;;;8.80;;
20014;SDS011;61787;42.022;23.078;2022-10-24T05:55:17;19.80;;;7.33;;
20014;SDS011;61787;42.022;23.078;2022-10-24T05:56:19;20.50;;;8.63;;
20014;SDS011;61787;42.022;23.078;2022-10-24T05:57:20;21.70;;;9.33;;
20014;SDS011;61787;42.022;23.078;2022-10-24T05:58:25;21.53;;;8.83;;
20014;SDS011;61787;42.022;23.078;2022-10-24T05:59:27;17.93;;;8.90;;
20014;SDS011;61787;42.022;23.078;2022-10-24T06:00:29;23.67;;;10.07;;
20014;SDS011;61787;42.022;23.078;2022-10-24T06:01:34;22.00;;;9.10;;
20014;SDS011;61787;42.022;23.078;2022-10-24T06:02:35;27.77;;;9.07;;
20014;SDS011;61787;42.022;23.078;2022-10-24T06:03:37;27.00;;;8.87;;
20014;SDS011;61787;42.022;23.078;2022-10-24T06:04:39;16.80;;;8.53;;
20014;SDS011;61787;42.022;23.078;2022-10-24T06:05:41;22.87;;;9.70;;
20014;SDS011;61787;42.022;23.078;2022-10-24T06:06:43;25.80;;;11.10;;
20014;SDS011;61787;42.022;23.078;2022-10-24T06:07:45;17.23;;;10.17;;
20014;SDS011;61787;42.022;23.078;2022-10-24T06:08:48;28.87;;;11.60;;
20014;SDS011;61787;42.022;23.078;2022-10-24T06:09:50;27.93;;;11.77;;
20014;SDS011;61787;42.022;23.078;2022-10-24T06:10:51;24.23;;;10.83;;
20014;SDS011;61787;42.022;23.078;2022-10-24T06:11:53;22.33;;;11.47;;
20014;SDS011;61787;42.022;23.078;2022-10-24T06:12:55;29.23;;;13.50;;
20014;SDS011;61787;42.022;23.078;2022-10-24T06:13:57;28.20;;;12.73;;
20014;SDS011;61787;42.022;23.078;2022-10-24T06:14:59;23.33;;;11.93;;
20014;SDS011;61787;42.022;23.078;2022-10-24T06:16:01;29.27;;;12.13;;
20014;SDS011;61787;42.022;23.078;2022-10-24T06:17:06;37.47;;;14.10;;
20014;SDS011;61787;42.022;23.078;2022-10-24T06:18:16;30.07;;;13.13;;
20014;SDS011;61787;42.022;23.078;2022-10-24T06:19:18;25.30;;;12.53;;
20014;SDS011;61787;42.022;23.078;2022-10-24T06:20:21;25.27;;;11.43;;
20014;SDS011;61787;42.022;23.078;2022-10-24T06:21:23;23.23;;;11.93;;
20014;SDS011;61787;42.022;23.078;2022-10-24T06:22:25;22.17;;;11.30;;
20014;SDS011;61787;42.022;23.078;2022-10-24T06:23:29;30.93;;;11.80;;
20014;SDS011;61787;42.022;23.078;2022-10-24T06:24:35;30.63;;;12.83;;
20014;SDS011;61787;42.022;23.078;2022-10-24T06:25:41;24.90;;;12.07;;
20014;SDS011;61787;42.022;23.078;2022-10-24T06:26:43;22.63;;;11.60;;
20014;SDS011;61787;42.022;23.078;2022-10-24T06:27:45;28.73;;;11.93;;
20014;SDS011;61787;42.022;23.078;2022-10-24T06:28:46;24.10;;;11.57;;
20014;SDS011;61787;42.022;23.078;2022-10-24T06:29:48;21.70;;;11.90;;
20014;SDS011;61787;42.022;23.078;2022-10-24T06:30:50;25.43;;;11.30;;
20014;SDS011;61787;42.022;23.078;2022-10-24T06:31:52;23.63;;;10.87;;
20014;SDS011;61787;42.022;23.078;2022-10-24T06:32:54;22.33;;;11.60;;
20014;SDS011;61787;42.022;23.078;2022-10-24T06:33:55;26.03;;;11.73;;